sensor_id;sensor_type;location;lat;lon;timestamp;pressure;altitude;pressure_sealevel;temperature;humidity
7026;BME280;3554;42.132;24.786;2024-03-02T00:01:18;101323.91;;;8.29;100.00
7026;BME280;3554;42.132;24.786;2024-03-02T00:03:46;101299.50;;;8.12;100.00
7026;BME280;3554;42.132;24.786;2024-03-02T00:06:13;101362.19;;;8.47;100.00
7026;BME280;3554;42.132;24.786;2024-03-02T00:08:40;101350.84;;;8.30;100.00
7026;BME280;3554;42.132;24.786;2024-03-02T00:11:07;101385.66;;;8.50;100.00
7026;BME280;3554;42.132;24.786;2024-03-02T00:13:36;101399.56;;;8.64;100.00
7026;BME280;3554;42.132;24.786;2024-03-02T00:16:05;101372.63;;;8.47;100.00
7026;BME280;3554;42.132;24.786;2024-03-02T00:18:34;101377.81;;;8.54;100.00
7026;BME280;3554;42.132;24.786;2024-03-02T00:21:03;101376.06;;;8.44;100.00
7026;BME280;3554;42.132;24.786;2024-03-02T00:23:35;101361.28;;;8.36;100.00
7026;BME280;3554;42.132;24.786;2024-03-02T00:26:03;101303.84;;;8.09;100.00
7026;BME280;3554;42.132;24.786;2024-03-02T00:28:31;101363.03;;;8.46;100.00
7026;BME280;3554;42.132;24.786;2024-03-02T00:31:02;101356.97;;;8.36;100.00
7026;BME280;3554;42.132;24.786;2024-03-02T00:33:34;101352.59;;;8.38;100.00
7026;BME280;3554;42.132;24.786;2024-03-02T00:36:04;101360.41;;;8.44;100.00
7026;BME280;3554;42.132;24.786;2024-03-02T00:38:33;101354.34;;;8.47;100.00
7026;BME280;3554;42.132;24.786;2024-03-02T00:41:04;101340.41;;;8.45;100.00
7026;BME280;3554;42.132;24.786;2024-03-02T00:43:42;101339.53;;;8.47;100.00
7026;BME280;3554;42.132;24.786;2024-03-02T00:46:11;101339.53;;;8.56;100.00
7026;BME280;3554;42.132;24.786;2024-03-02T00:48:39;101331.69;;;8.56;100.00
7026;BME280;3554;42.132;24.786;2024-03-02T00:51:12;101309.97;;;8.65;100.00
7026;BME280;3554;42.132;24.786;2024-03-02T00:53:39;101316.88;;;8.69;100.00
7026;BME280;3554;42.132;24.786;2024-03-02T00:56:09;101296.03;;;8.60;100.00
7026;BME280;3554;42.132;24.786;2024-03-02T00:58:36;101284.72;;;8.53;100.00
7026;BME280;3554;42.132;24.786;2024-03-02T01:01:03;101283.84;;;8.63;100.00
7026;BME280;3554;42.132;24.786;2024-03-02T01:03:31;101274.28;;;8.62;100.00
7026;BME280;3554;42.132;24.786;2024-03-02T01:05:58;101261.22;;;8.58;100.00
7026;BME280;3554;42.132;24.786;2024-03-02T01:08:27;101256.03;;;8.53;100.00
7026;BME280;3554;42.132;24.786;2024-03-02T01:10:54;101262.94;;;8.63;100.00
7026;BME280;3554;42.132;24.786;2024-03-02T01:13:22;101249.03;;;8.58;100.00
7026;BME280;3554;42.132;24.786;2024-03-02T01:15:49;101255.13;;;8.67;100.00
7026;BME280;3554;42.132;24.786;2024-03-02T01:18:16;101249.94;;;8.51;100.00
7026;BME280;3554;42.132;24.786;2024-03-02T01:20:43;101253.44;;;8.50;100.00
7026;BME280;3554;42.132;24.786;2024-03-02T01:23:11;101241.28;;;8.34;100.00
7026;BME280;3554;42.132;24.786;2024-03-02T01:25:39;101263.00;;;8.42;100.00
7026;BME280;3554;42.132;24.786;2024-03-02T01:28:06;101270.84;;;8.39;100.00
7026;BME280;3554;42.132;24.786;2024-03-02T01:30:33;101271.72;;;8.32;100.00
7026;BME280;3554;42.132;24.786;2024-03-02T01:33:00;101294.31;;;8.35;100.00
7026;BME280;3554;42.132;24.786;2024-03-02T01:35:27;101291.72;;;8.27;100.00
7026;BME280;3554;42.132;24.786;2024-03-02T01:37:54;101324.78;;;8.36;100.00
7026;BME280;3554;42.132;24.786;2024-03-02T01:40:21;101337.78;;;8.31;100.00
7026;BME280;3554;42.132;24.786;2024-03-02T01:42:53;101363.03;;;8.38;100.00
7026;BME280;3554;42.132;24.786;2024-03-02T01:45:21;101384.78;;;8.36;100.00
7026;BME280;3554;42.132;24.786;2024-03-02T01:47:48;101398.69;;;8.33;100.00
7026;BME280;3554;42.132;24.786;2024-03-02T01:50:16;101419.56;;;8.30;100.00
7026;BME280;3554;42.132;24.786;2024-03-02T01:52:43;101440.44;;;8.41;100.00
7026;BME280;3554;42.132;24.786;2024-03-02T01:55:11;101464.78;;;8.38;100.00
7026;BME280;3554;42.132;24.786;2024-03-02T01:57:38;101489.16;;;8.49;100.00
7026;BME280;3554;42.132;24.786;2024-03-02T02:00:08;101501.38;;;8.49;100.00
7026;BME280;3554;42.132;24.786;2024-03-02T02:02:35;101516.16;;;8.62;100.00
7026;BME280;3554;42.132;24.786;2024-03-02T02:05:02;101533.56;;;8.58;100.00
7026;BME280;3554;42.132;24.786;2024-03-02T02:07:29;101522.22;;;8.44;100.00
7026;BME280;3554;42.132;24.786;2024-03-02T02:09:56;101535.25;;;8.47;100.00
7026;BME280;3554;42.132;24.786;2024-03-02T02:12:24;101542.25;;;8.47;100.00
7026;BME280;3554;42.132;24.786;2024-03-02T02:14:51;101549.19;;;8.49;100.00
7026;BME280;3554;42.132;24.786;2024-03-02T02:17:19;101560.50;;;8.45;100.00
7026;BME280;3554;42.132;24.786;2024-03-02T02:19:46;101575.31;;;8.57;100.00
7026;BME280;3554;42.132;24.786;2024-03-02T02:22:15;101570.06;;;8.49;100.00
7026;BME280;3554;42.132;24.786;2024-03-02T02:24:42;101581.34;;;8.44;100.00
7026;BME280;3554;42.132;24.786;2024-03-02T02:27:09;101564.78;;;8.24;100.00
7026;BME280;3554;42.132;24.786;2024-03-02T02:29:36;101578.72;;;8.27;100.00
7026;BME280;3554;42.132;24.786;2024-03-02T02:32:04;101599.59;;;8.30;100.00
7026;BME280;3554;42.132;24.786;2024-03-02T02:34:31;101623.06;;;8.32;100.00
7026;BME280;3554;42.132;24.786;2024-03-02T02:36:58;101650.09;;;8.40;100.00
7026;BME280;3554;42.132;24.786;2024-03-02T02:39:26;101661.41;;;8.45;100.00
7026;BME280;3554;42.132;24.786;2024-03-02T02:41:53;101670.09;;;8.38;100.00
7026;BME280;3554;42.132;24.786;2024-03-02T02:44:20;101683.19;;;8.47;100.00
7026;BME280;3554;42.132;24.786;2024-03-02T02:46:47;101693.63;;;8.47;100.00
7026;BME280;3554;42.132;24.786;2024-03-02T02:49:14;101703.97;;;8.35;100.00
7026;BME280;3554;42.132;24.786;2024-03-02T02:51:41;101720.56;;;8.41;100.00
7026;BME280;3554;42.132;24.786;2024-03-02T02:54:08;101753.66;;;8.45;100.00
7026;BME280;3554;42.132;24.786;2024-03-02T02:56:36;101781.53;;;8.54;100.00
7026;BME280;3554;42.132;24.786;2024-03-02T02:59:03;101798.03;;;8.51;100.00
7026;BME280;3554;42.132;24.786;2024-03-02T03:01:30;101789.25;;;8.39;100.00
7026;BME280;3554;42.132;24.786;2024-03-02T03:03:57;101799.59;;;8.25;100.00
7026;BME280;3554;42.132;24.786;2024-03-02T03:06:24;101821.31;;;8.24;100.00
7026;BME280;3554;42.132;24.786;2024-03-02T03:08:51;101834.28;;;8.20;100.00
7026;BME280;3554;42.132;24.786;2024-03-02T03:11:18;101899.69;;;8.35;100.00
7026;BME280;3554;42.132;24.786;2024-03-02T03:13:46;101921.34;;;8.28;100.00
7026;BME280;3554;42.132;24.786;2024-03-02T03:16:13;101957.97;;;8.35;100.00
7026;BME280;3554;42.132;24.786;2024-03-02T03:18:40;101982.34;;;8.36;100.00
7026;BME280;3554;42.132;24.786;2024-03-02T03:21:07;102016.25;;;8.34;100.00
7026;BME280;3554;42.132;24.786;2024-03-02T03:23:34;102017.72;;;8.13;100.00
7026;BME280;3554;42.132;24.786;2024-03-02T03:26:02;102068.22;;;8.19;100.00
7026;BME280;3554;42.132;24.786;2024-03-02T03:28:30;102109.03;;;8.14;100.00
7026;BME280;3554;42.132;24.786;2024-03-02T03:30:58;102135.25;;;8.23;100.00
7026;BME280;3554;42.132;24.786;2024-03-02T03:33:25;102180.41;;;8.21;100.00
7026;BME280;3554;42.132;24.786;2024-03-02T03:35:52;102225.63;;;8.18;100.00
7026;BME280;3554;42.132;24.786;2024-03-02T03:38:19;102292.63;;;8.22;100.00
7026;BME280;3554;42.132;24.786;2024-03-02T03:40:46;102354.47;;;8.25;100.00
7026;BME280;3554;42.132;24.786;2024-03-02T03:43:13;102413.72;;;8.29;100.00
7026;BME280;3554;42.132;24.786;2024-03-02T03:45:40;102423.19;;;8.24;100.00
7026;BME280;3554;42.132;24.786;2024-03-02T03:48:09;102447.19;;;8.06;100.00
7026;BME280;3554;42.132;24.786;2024-03-02T03:50:36;102504.88;;;8.21;100.00
7026;BME280;3554;42.132;24.786;2024-03-02T03:53:03;102562.53;;;8.33;100.00
7026;BME280;3554;42.132;24.786;2024-03-02T03:55:30;102590.28;;;8.28;100.00
7026;BME280;3554;42.132;24.786;2024-03-02T03:57:57;102634.78;;;8.34;100.00
7026;BME280;3554;42.132;24.786;2024-03-02T04:00:24;102651.25;;;8.32;100.00
7026;BME280;3554;42.132;24.786;2024-03-02T04:02:51;102681.84;;;8.37;100.00
7026;BME280;3554;42.132;24.786;2024-03-02T04:05:20;102678.34;;;8.38;100.00
7026;BME280;3554;42.132;24.786;2024-03-02T04:07:47;102682.81;;;8.42;100.00
7026;BME280;3554;42.132;24.786;2024-03-02T04:10:14;102654.38;;;8.17;100.00
7026;BME280;3554;42.132;24.786;2024-03-02T04:12:42;102699.19;;;8.35;100.00
7026;BME280;3554;42.132;24.786;2024-03-02T04:15:09;102706.81;;;8.26;100.00
7026;BME280;3554;42.132;24.786;2024-03-02T04:17:36;102715.59;;;8.30;100.00
7026;BME280;3554;42.132;24.786;2024-03-02T04:20:04;102734.69;;;8.27;100.00
7026;BME280;3554;42.132;24.786;2024-03-02T04:22:34;102756.25;;;8.20;100.00
7026;BME280;3554;42.132;24.786;2024-03-02T04:25:02;102778.78;;;8.17;100.00
7026;BME280;3554;42.132;24.786;2024-03-02T04:27:30;102808.38;;;8.19;100.00
7026;BME280;3554;42.132;24.786;2024-03-02T04:29:58;102868.81;;;8.34;100.00
7026;BME280;3554;42.132;24.786;2024-03-02T04:32:26;102925.78;;;8.50;100.00
7026;BME280;3554;42.132;24.786;2024-03-02T04:34:53;102954.56;;;8.53;100.00
7026;BME280;3554;42.132;24.786;2024-03-02T04:37:20;102977.91;;;8.45;100.00
7026;BME280;3554;42.132;24.786;2024-03-02T04:39:48;103010.59;;;8.65;100.00
7026;BME280;3554;42.132;24.786;2024-03-02T04:42:15;103011.56;;;8.69;100.00
7026;BME280;3554;42.132;24.786;2024-03-02T04:44:42;103018.13;;;8.86;100.00
7026;BME280;3554;42.132;24.786;2024-03-02T04:47:09;102998.97;;;8.87;100.00
7026;BME280;3554;42.132;24.786;2024-03-02T04:49:36;102978.03;;;8.86;100.00
7026;BME280;3554;42.132;24.786;2024-03-02T04:52:04;102953.59;;;8.84;100.00
7026;BME280;3554;42.132;24.786;2024-03-02T04:54:30;102927.41;;;8.81;100.00
7026;BME280;3554;42.132;24.786;2024-03-02T04:56:59;102904.69;;;8.78;100.00
7026;BME280;3554;42.132;24.786;2024-03-02T04:59:26;102863.44;;;8.63;100.00
7026;BME280;3554;42.132;24.786;2024-03-02T05:01:53;102803.53;;;8.32;100.00
7026;BME280;3554;42.132;24.786;2024-03-02T05:04:19;102837.97;;;8.53;100.00
7026;BME280;3554;42.132;24.786;2024-03-02T05:06:47;102829.09;;;8.45;100.00
7026;BME280;3554;42.132;24.786;2024-03-02T05:09:18;102812.38;;;8.39;100.00
7026;BME280;3554;42.132;24.786;2024-03-02T05:11:45;102839.59;;;8.48;100.00
7026;BME280;3554;42.132;24.786;2024-03-02T05:14:38;102839.47;;;8.44;100.00
7026;BME280;3554;42.132;24.786;2024-03-02T05:17:05;102848.13;;;8.41;100.00
7026;BME280;3554;42.132;24.786;2024-03-02T05:19:32;102851.50;;;8.37;100.00
7026;BME280;3554;42.132;24.786;2024-03-02T05:21:59;102835.22;;;8.13;100.00
7026;BME280;3554;42.132;24.786;2024-03-02T05:24:26;102871.81;;;8.16;100.00
7026;BME280;3554;42.132;24.786;2024-03-02T05:26:54;102898.22;;;8.27;100.00
7026;BME280;3554;42.132;24.786;2024-03-02T05:29:21;102918.59;;;8.09;100.00
7026;BME280;3554;42.132;24.786;2024-03-02T05:31:49;102968.34;;;8.15;100.00
7026;BME280;3554;42.132;24.786;2024-03-02T05:34:16;103010.88;;;8.12;100.00
7026;BME280;3554;42.132;24.786;2024-03-02T05:36:44;103070.81;;;8.09;100.00
7026;BME280;3554;42.132;24.786;2024-03-02T05:39:11;103139.75;;;8.17;100.00
7026;BME280;3554;42.132;24.786;2024-03-02T05:41:38;103194.56;;;8.17;100.00
7026;BME280;3554;42.132;24.786;2024-03-02T05:44:04;103249.16;;;8.10;100.00
7026;BME280;3554;42.132;24.786;2024-03-02T05:46:31;103337.06;;;8.12;100.00
7026;BME280;3554;42.132;24.786;2024-03-02T05:49:00;103388.53;;;8.16;100.00
7026;BME280;3554;42.132;24.786;2024-03-02T05:51:27;103484.94;;;8.35;100.00
7026;BME280;3554;42.132;24.786;2024-03-02T05:53:54;103526.50;;;8.29;100.00
7026;BME280;3554;42.132;24.786;2024-03-02T05:56:21;103610.81;;;8.50;100.00
7026;BME280;3554;42.132;24.786;2024-03-02T05:58:48;103628.63;;;8.38;100.00
7026;BME280;3554;42.132;24.786;2024-03-02T06:01:26;103673.66;;;8.55;100.00
7026;BME280;3554;42.132;24.786;2024-03-02T06:03:56;103701.47;;;8.54;100.00
7026;BME280;3554;42.132;24.786;2024-03-02T06:06:25;103719.16;;;8.61;100.00
7026;BME280;3554;42.132;24.786;2024-03-02T06:08:53;103579.28;;;7.77;100.00
7026;BME280;3554;42.132;24.786;2024-03-02T06:11:20;103740.53;;;8.74;100.00
7026;BME280;3554;42.132;24.786;2024-03-02T06:13:47;103735.13;;;8.69;100.00
7026;BME280;3554;42.132;24.786;2024-03-02T06:16:14;103736.25;;;8.76;100.00
7026;BME280;3554;42.132;24.786;2024-03-02T06:18:40;103714.69;;;8.57;100.00
7026;BME280;3554;42.132;24.786;2024-03-02T06:21:07;103692.50;;;8.46;100.00
7026;BME280;3554;42.132;24.786;2024-03-02T06:23:36;103686.41;;;8.47;100.00
7026;BME280;3554;42.132;24.786;2024-03-02T06:26:03;103689.22;;;8.52;100.00
7026;BME280;3554;42.132;24.786;2024-03-02T06:28:30;103667.81;;;8.38;100.00
7026;BME280;3554;42.132;24.786;2024-03-02T06:30:57;103665.13;;;8.37;100.00
7026;BME280;3554;42.132;24.786;2024-03-02T06:33:24;103657.03;;;8.29;100.00
7026;BME280;3554;42.132;24.786;2024-03-02T06:35:51;103683.56;;;8.40;100.00
7026;BME280;3554;42.132;24.786;2024-03-02T06:38:18;103669.19;;;8.29;100.00
7026;BME280;3554;42.132;24.786;2024-03-02T06:40:46;103700.38;;;8.48;100.00
7026;BME280;3554;42.132;24.786;2024-03-02T06:43:13;103712.44;;;8.44;100.00
7026;BME280;3554;42.132;24.786;2024-03-02T06:45:40;103746.72;;;8.53;100.00
7026;BME280;3554;42.132;24.786;2024-03-02T06:48:07;103770.34;;;8.56;100.00
7026;BME280;3554;42.132;24.786;2024-03-02T06:50:34;103792.84;;;8.53;100.00
7026;BME280;3554;42.132;24.786;2024-03-02T06:53:01;103795.88;;;8.41;100.00
7026;BME280;3554;42.132;24.786;2024-03-02T06:55:29;103786.56;;;8.26;100.00
7026;BME280;3554;42.132;24.786;2024-03-02T06:57:58;103782.28;;;8.07;100.00
7026;BME280;3554;42.132;24.786;2024-03-02T07:00:25;103838.94;;;8.30;100.00
7026;BME280;3554;42.132;24.786;2024-03-02T07:02:51;103838.00;;;8.28;100.00
7026;BME280;3554;42.132;24.786;2024-03-02T07:05:18;103861.13;;;8.40;100.00
7026;BME280;3554;42.132;24.786;2024-03-02T07:07:46;103887.72;;;8.52;100.00
7026;BME280;3554;42.132;24.786;2024-03-02T07:10:13;103898.84;;;8.48;100.00
7026;BME280;3554;42.132;24.786;2024-03-02T07:12:40;103920.50;;;8.66;100.00
7026;BME280;3554;42.132;24.786;2024-03-02T07:15:09;103930.41;;;8.75;100.00
7026;BME280;3554;42.132;24.786;2024-03-02T07:18:02;103963.69;;;8.79;100.00
7026;BME280;3554;42.132;24.786;2024-03-02T07:20:29;103954.56;;;8.69;100.00
7026;BME280;3554;42.132;24.786;2024-03-02T07:22:56;103941.56;;;8.71;100.00
7026;BME280;3554;42.132;24.786;2024-03-02T07:25:23;103940.69;;;8.70;100.00
7026;BME280;3554;42.132;24.786;2024-03-02T07:27:50;103875.03;;;8.40;100.00
7026;BME280;3554;42.132;24.786;2024-03-02T07:30:19;103900.19;;;8.59;100.00
7026;BME280;3554;42.132;24.786;2024-03-02T07:32:50;103892.16;;;8.54;100.00
7026;BME280;3554;42.132;24.786;2024-03-02T07:35:17;103887.88;;;8.56;100.00
7026;BME280;3554;42.132;24.786;2024-03-02T07:37:44;103869.47;;;8.53;100.00
7026;BME280;3554;42.132;24.786;2024-03-02T07:40:12;103858.34;;;8.57;100.00
7026;BME280;3554;42.132;24.786;2024-03-02T07:42:40;103847.00;;;8.57;100.00
7026;BME280;3554;42.132;24.786;2024-03-02T07:45:07;103842.78;;;8.60;100.00
7026;BME280;3554;42.132;24.786;2024-03-02T07:47:36;103852.88;;;8.74;100.00
7026;BME280;3554;42.132;24.786;2024-03-02T07:50:03;103844.00;;;8.92;100.00
7026;BME280;3554;42.132;24.786;2024-03-02T07:52:31;103858.97;;;9.18;100.00
7026;BME280;3554;42.132;24.786;2024-03-02T07:54:59;103839.75;;;9.18;100.00
7026;BME280;3554;42.132;24.786;2024-03-02T07:57:26;103845.03;;;9.19;100.00
7026;BME280;3554;42.132;24.786;2024-03-02T07:59:53;103820.28;;;9.10;100.00
7026;BME280;3554;42.132;24.786;2024-03-02T08:02:20;103799.97;;;9.03;100.00
7026;BME280;3554;42.132;24.786;2024-03-02T08:04:49;103776.25;;;8.97;100.00
7026;BME280;3554;42.132;24.786;2024-03-02T08:07:16;103765.00;;;8.99;100.00
7026;BME280;3554;42.132;24.786;2024-03-02T08:09:43;103747.44;;;8.95;100.00
7026;BME280;3554;42.132;24.786;2024-03-02T08:12:10;103744.25;;;9.04;100.00
7026;BME280;3554;42.132;24.786;2024-03-02T08:14:37;103721.69;;;9.06;100.00
7026;BME280;3554;42.132;24.786;2024-03-02T08:17:04;103715.88;;;9.14;100.00
7026;BME280;3554;42.132;24.786;2024-03-02T08:19:35;103691.25;;;9.08;100.00
7026;BME280;3554;42.132;24.786;2024-03-02T08:22:04;103695.56;;;9.31;100.00
7026;BME280;3554;42.132;24.786;2024-03-02T08:24:32;103619.06;;;8.86;100.00
7026;BME280;3554;42.132;24.786;2024-03-02T08:26:59;103601.53;;;8.84;100.00
7026;BME280;3554;42.132;24.786;2024-03-02T08:29:26;103593.38;;;8.75;100.00
7026;BME280;3554;42.132;24.786;2024-03-02T08:31:54;103608.84;;;8.94;100.00
7026;BME280;3554;42.132;24.786;2024-03-02T08:34:21;103631.06;;;9.06;100.00
7026;BME280;3554;42.132;24.786;2024-03-02T08:36:48;103624.88;;;9.04;100.00
7026;BME280;3554;42.132;24.786;2024-03-02T08:39:17;103636.59;;;9.15;100.00
7026;BME280;3554;42.132;24.786;2024-03-02T08:41:45;103631.63;;;9.23;100.00
7026;BME280;3554;42.132;24.786;2024-03-02T08:44:12;103606.75;;;9.09;100.00
7026;BME280;3554;42.132;24.786;2024-03-02T08:46:40;103586.50;;;9.02;100.00
7026;BME280;3554;42.132;24.786;2024-03-02T08:49:07;103599.53;;;9.27;100.00
7026;BME280;3554;42.132;24.786;2024-03-02T08:51:34;103574.47;;;9.33;100.00
7026;BME280;3554;42.132;24.786;2024-03-02T08:54:01;103559.84;;;9.40;100.00
7026;BME280;3554;42.132;24.786;2024-03-02T08:56:31;103570.84;;;9.56;100.00
7026;BME280;3554;42.132;24.786;2024-03-02T08:58:58;103550.34;;;9.70;100.00
7026;BME280;3554;42.132;24.786;2024-03-02T09:01:25;103546.59;;;9.92;100.00
7026;BME280;3554;42.132;24.786;2024-03-02T09:03:52;103523.13;;;9.93;100.00
7026;BME280;3554;42.132;24.786;2024-03-02T09:06:19;103477.56;;;9.88;100.00
7026;BME280;3554;42.132;24.786;2024-03-02T09:08:46;103444.66;;;9.96;100.00
7026;BME280;3554;42.132;24.786;2024-03-02T09:11:15;103400.59;;;10.11;100.00
7026;BME280;3554;42.132;24.786;2024-03-02T09:13:44;103337.59;;;10.05;100.00
7026;BME280;3554;42.132;24.786;2024-03-02T09:16:11;103311.91;;;10.25;100.00
7026;BME280;3554;42.132;24.786;2024-03-02T09:18:37;103223.47;;;10.13;100.00
7026;BME280;3554;42.132;24.786;2024-03-02T09:21:05;103150.97;;;10.09;100.00
7026;BME280;3554;42.132;24.786;2024-03-02T09:23:33;103061.97;;;10.09;100.00
7026;BME280;3554;42.132;24.786;2024-03-02T09:26:00;102983.28;;;10.03;100.00
7026;BME280;3554;42.132;24.786;2024-03-02T09:28:28;102919.00;;;10.19;100.00
7026;BME280;3554;42.132;24.786;2024-03-02T09:30:56;102824.56;;;10.08;100.00
7026;BME280;3554;42.132;24.786;2024-03-02T09:33:23;102702.72;;;9.73;100.00
7026;BME280;3554;42.132;24.786;2024-03-02T09:35:50;102727.84;;;10.14;100.00
7026;BME280;3554;42.132;24.786;2024-03-02T09:38:17;102694.09;;;10.35;100.00
7026;BME280;3554;42.132;24.786;2024-03-02T09:40:44;102627.88;;;10.45;100.00
7026;BME280;3554;42.132;24.786;2024-03-02T09:43:12;102552.78;;;10.43;100.00
7026;BME280;3554;42.132;24.786;2024-03-02T09:45:40;102462.69;;;10.24;100.00
7026;BME280;3554;42.132;24.786;2024-03-02T09:48:09;102434.13;;;10.51;100.00
7026;BME280;3554;42.132;24.786;2024-03-02T09:50:36;102390.63;;;10.70;100.00
7026;BME280;3554;42.132;24.786;2024-03-02T09:53:03;102328.47;;;10.49;100.00
7026;BME280;3554;42.132;24.786;2024-03-02T09:55:31;102298.91;;;10.65;100.00
7026;BME280;3554;42.132;24.786;2024-03-02T09:57:58;102252.63;;;10.66;100.00
7026;BME280;3554;42.132;24.786;2024-03-02T10:00:26;102213.34;;;10.72;100.00
7026;BME280;3554;42.132;24.786;2024-03-02T10:02:53;102182.88;;;10.91;100.00
7026;BME280;3554;42.132;24.786;2024-03-02T10:05:27;102161.94;;;11.16;100.00
7026;BME280;3554;42.132;24.786;2024-03-02T10:08:00;102050.97;;;10.86;100.00
7026;BME280;3554;42.132;24.786;2024-03-02T10:10:35;102019.47;;;10.72;100.00
7026;BME280;3554;42.132;24.786;2024-03-02T10:13:06;101980.19;;;10.73;100.00
7026;BME280;3554;42.132;24.786;2024-03-02T10:15:33;101966.22;;;10.74;100.00
7026;BME280;3554;42.132;24.786;2024-03-02T10:18:00;101943.53;;;10.69;100.00
7026;BME280;3554;42.132;24.786;2024-03-02T10:20:28;101932.16;;;10.68;100.00
7026;BME280;3554;42.132;24.786;2024-03-02T10:22:55;101907.69;;;10.75;100.00
7026;BME280;3554;42.132;24.786;2024-03-02T10:25:29;101905.09;;;10.83;100.00
7026;BME280;3554;42.132;24.786;2024-03-02T10:27:57;101883.25;;;10.89;100.00
7026;BME280;3554;42.132;24.786;2024-03-02T10:30:24;101853.53;;;11.02;100.00
7026;BME280;3554;42.132;24.786;2024-03-02T10:32:53;101829.00;;;11.18;100.00
7026;BME280;3554;42.132;24.786;2024-03-02T10:35:21;101792.28;;;11.21;100.00
7026;BME280;3554;42.132;24.786;2024-03-02T10:37:50;101716.38;;;11.00;100.00
7026;BME280;3554;42.132;24.786;2024-03-02T10:40:18;101698.03;;;10.98;100.00
7026;BME280;3554;42.132;24.786;2024-03-02T10:42:45;101683.16;;;11.05;100.00
7026;BME280;3554;42.132;24.786;2024-03-02T10:45:15;101633.44;;;10.93;100.00
7026;BME280;3554;42.132;24.786;2024-03-02T10:47:43;101602.09;;;10.70;100.00
7026;BME280;3554;42.132;24.786;2024-03-02T10:50:10;101596.84;;;10.70;100.00
7026;BME280;3554;42.132;24.786;2024-03-02T10:52:37;101595.16;;;10.67;100.00
7026;BME280;3554;42.132;24.786;2024-03-02T10:55:08;101592.53;;;10.67;100.00
7026;BME280;3554;42.132;24.786;2024-03-02T10:57:41;101599.53;;;10.65;100.00
7026;BME280;3554;42.132;24.786;2024-03-02T11:00:13;101609.97;;;10.70;100.00
7026;BME280;3554;42.132;24.786;2024-03-02T11:02:50;101641.34;;;10.85;100.00
7026;BME280;3554;42.132;24.786;2024-03-02T11:05:23;101641.34;;;10.84;100.00
7026;BME280;3554;42.132;24.786;2024-03-02T11:07:53;101645.63;;;10.97;100.00
7026;BME280;3554;42.132;24.786;2024-03-02T11:10:25;101634.19;;;11.10;100.00
7026;BME280;3554;42.132;24.786;2024-03-02T11:12:57;101620.13;;;11.23;100.00
7026;BME280;3554;42.132;24.786;2024-03-02T11:15:27;101572.91;;;11.24;100.00
7026;BME280;3554;42.132;24.786;2024-03-02T11:17:55;101550.03;;;11.41;100.00
7026;BME280;3554;42.132;24.786;2024-03-02T11:20:23;101500.97;;;11.54;100.00
7026;BME280;3554;42.132;24.786;2024-03-02T11:22:51;101467.69;;;11.59;100.00
7026;BME280;3554;42.132;24.786;2024-03-02T11:25:26;101415.47;;;11.41;100.00
7026;BME280;3554;42.132;24.786;2024-03-02T11:28:00;101386.50;;;11.48;100.00
7026;BME280;3554;42.132;24.786;2024-03-02T11:30:50;101337.69;;;11.38;100.00
7026;BME280;3554;42.132;24.786;2024-03-02T11:33:23;101310.47;;;11.47;100.00
7026;BME280;3554;42.132;24.786;2024-03-02T11:35:53;101300.63;;;11.67;100.00
7026;BME280;3554;42.132;24.786;2024-03-02T11:38:20;101289.31;;;11.60;100.00
7026;BME280;3554;42.132;24.786;2024-03-02T11:40:48;101296.81;;;11.86;100.00
7026;BME280;3554;42.132;24.786;2024-03-02T11:43:16;101266.09;;;11.94;100.00
7026;BME280;3554;42.132;24.786;2024-03-02T11:45:43;101230.97;;;12.03;100.00
7026;BME280;3554;42.132;24.786;2024-03-02T11:48:12;101196.50;;;12.22;100.00
7026;BME280;3554;42.132;24.786;2024-03-02T11:50:41;101166.91;;;12.13;100.00
7026;BME280;3554;42.132;24.786;2024-03-02T11:53:10;101161.72;;;12.10;100.00
7026;BME280;3554;42.132;24.786;2024-03-02T11:55:39;101132.44;;;11.82;100.00
7026;BME280;3554;42.132;24.786;2024-03-02T11:58:07;101164.59;;;11.95;100.00
7026;BME280;3554;42.132;24.786;2024-03-02T12:00:34;101176.72;;;12.02;100.00
7026;BME280;3554;42.132;24.786;2024-03-02T12:03:03;101162.72;;;12.03;100.00
7026;BME280;3554;42.132;24.786;2024-03-02T12:05:34;100983.50;;;11.02;100.00
7026;BME280;3554;42.132;24.786;2024-03-02T12:08:03;101148.84;;;11.95;100.00
7026;BME280;3554;42.132;24.786;2024-03-02T12:10:31;101164.38;;;12.08;100.00
7026;BME280;3554;42.132;24.786;2024-03-02T12:12:58;101137.28;;;12.50;100.00
7026;BME280;3554;42.132;24.786;2024-03-02T12:15:28;101078.81;;;12.42;100.00
7026;BME280;3554;42.132;24.786;2024-03-02T12:17:56;101043.50;;;12.55;100.00
7026;BME280;3554;42.132;24.786;2024-03-02T12:20:24;100991.56;;;12.28;100.00
7026;BME280;3554;42.132;24.786;2024-03-02T12:22:52;100993.78;;;12.46;100.00
7026;BME280;3554;42.132;24.786;2024-03-02T12:25:20;100952.50;;;12.51;100.00
7026;BME280;3554;42.132;24.786;2024-03-02T12:27:48;100913.09;;;12.53;100.00
7026;BME280;3554;42.132;24.786;2024-03-02T12:30:16;100869.41;;;12.49;100.00
7026;BME280;3554;42.132;24.786;2024-03-02T12:32:45;100826.34;;;12.21;100.00
7026;BME280;3554;42.132;24.786;2024-03-02T12:35:13;100816.56;;;12.27;100.00
7026;BME280;3554;42.132;24.786;2024-03-02T12:37:44;100797.22;;;12.31;100.00
7026;BME280;3554;42.132;24.786;2024-03-02T12:40:12;100778.41;;;12.13;100.00
7026;BME280;3554;42.132;24.786;2024-03-02T12:42:39;100730.41;;;11.72;100.00
7026;BME280;3554;42.132;24.786;2024-03-02T12:45:07;100785.63;;;12.05;100.00
7026;BME280;3554;42.132;24.786;2024-03-02T12:47:34;100790.00;;;12.04;100.00
7026;BME280;3554;42.132;24.786;2024-03-02T12:50:04;100785.28;;;12.18;100.00
7026;BME280;3554;42.132;24.786;2024-03-02T12:52:32;100761.91;;;12.08;100.00
7026;BME280;3554;42.132;24.786;2024-03-02T12:55:00;100761.44;;;11.92;100.00
7026;BME280;3554;42.132;24.786;2024-03-02T12:57:29;100775.69;;;11.80;100.00
7026;BME280;3554;42.132;24.786;2024-03-02T13:00:00;100748.03;;;11.66;100.00
7026;BME280;3554;42.132;24.786;2024-03-02T13:02:28;100738.50;;;11.62;100.00